sensor_id;sensor_type;location;lat;lon;timestamp;P1;durP1;ratioP1;P2;durP2;ratioP2
16139;SDS011;8175;49.326;12.690;2023-06-24T03:57:58;14.40;;;13.00;;
16139;SDS011;8175;49.326;12.690;2023-06-24T04:00:23;17.17;;;14.53;;
16139;SDS011;8175;49.326;12.690;2023-06-24T04:02:49;17.40;;;15.07;;
16139;SDS011;8175;49.326;12.690;2023-06-24T04:05:15;16.10;;;14.13;;
16139;SDS011;8175;49.326;12.690;2023-06-24T04:07:41;16.13;;;13.30;;
16139;SDS011;8175;49.326;12.690;2023-06-24T04:10:12;15.10;;;13.50;;
16139;SDS011;8175;49.326;12.690;2023-06-24T04:12:38;16.80;;;12.90;;
16139;SDS011;8175;49.326;12.690;2023-06-24T04:15:04;16.60;;;12.63;;
16139;SDS011;8175;49.326;12.690;2023-06-24T04:17:30;15.33;;;13.13;;
16139;SDS011;8175;49.326;12.690;2023-06-24T04:19:56;14.00;;;12.53;;
16139;SDS011;8175;49.326;12.690;2023-06-24T04:22:22;13.27;;;11.87;;
16139;SDS011;8175;49.326;12.690;2023-06-24T04:24:48;13.23;;;11.37;;
16139;SDS011;8175;49.326;12.690;2023-06-24T04:27:13;12.17;;;10.87;;
16139;SDS011;8175;49.326;12.690;2023-06-24T04:29:39;12.80;;;11.37;;
16139;SDS011;8175;49.326;12.690;2023-06-24T04:32:05;11.30;;;9.97;;
16139;SDS011;8175;49.326;12.690;2023-06-24T04:34:31;11.23;;;10.03;;
16139;SDS011;8175;49.326;12.690;2023-06-24T04:36:57;13.07;;;11.03;;
16139;SDS011;8175;49.326;12.690;2023-06-24T04:39:23;12.53;;;10.97;;
16139;SDS011;8175;49.326;12.690;2023-06-24T04:41:48;11.57;;;10.37;;
16139;SDS011;8175;49.326;12.690;2023-06-24T04:44:14;12.80;;;10.83;;
16139;SDS011;8175;49.326;12.690;2023-06-24T04:46:40;13.40;;;11.03;;
16139;SDS011;8175;49.326;12.690;2023-06-24T04:49:05;11.83;;;10.63;;
16139;SDS011;8175;49.326;12.690;2023-06-24T04:51:31;12.47;;;11.20;;
16139;SDS011;8175;49.326;12.690;2023-06-24T04:53:57;12.57;;;11.33;;
16139;SDS011;8175;49.326;12.690;2023-06-24T04:56:23;12.50;;;11.20;;
16139;SDS011;8175;49.326;12.690;2023-06-24T04:58:49;12.67;;;11.37;;
16139;SDS011;8175;49.326;12.690;2023-06-24T05:01:15;13.97;;;12.10;;
16139;SDS011;8175;49.326;12.690;2023-06-24T05:03:42;15.67;;;11.43;;
16139;SDS011;8175;49.326;12.690;2023-06-24T05:06:07;14.13;;;12.63;;
16139;SDS011;8175;49.326;12.690;2023-06-24T05:08:33;13.70;;;12.23;;
16139;SDS011;8175;49.326;12.690;2023-06-24T05:10:59;13.50;;;12.13;;
16139;SDS011;8175;49.326;12.690;2023-06-24T05:13:24;12.60;;;10.67;;
16139;SDS011;8175;49.326;12.690;2023-06-24T05:15:53;14.97;;;11.67;;
16139;SDS011;8175;49.326;12.690;2023-06-24T05:18:18;14.83;;;12.43;;
16139;SDS011;8175;49.326;12.690;2023-06-24T05:20:44;13.80;;;12.40;;
16139;SDS011;8175;49.326;12.690;2023-06-24T05:23:09;13.77;;;12.37;;
16139;SDS011;8175;49.326;12.690;2023-06-24T05:25:35;15.33;;;11.80;;
16139;SDS011;8175;49.326;12.690;2023-06-24T05:28:01;14.90;;;13.40;;
16139;SDS011;8175;49.326;12.690;2023-06-24T05:30:27;13.80;;;12.40;;
16139;SDS011;8175;49.326;12.690;2023-06-24T05:32:52;14.60;;;12.93;;
16139;SDS011;8175;49.326;12.690;2023-06-24T05:35:18;14.10;;;12.80;;
16139;SDS011;8175;49.326;12.690;2023-06-24T05:37:44;13.70;;;12.40;;
16139;SDS011;8175;49.326;12.690;2023-06-24T05:40:09;12.53;;;11.33;;
16139;SDS011;8175;49.326;12.690;2023-06-24T05:42:37;13.40;;;12.13;;
16139;SDS011;8175;49.326;12.690;2023-06-24T05:45:03;11.90;;;10.80;;
16139;SDS011;8175;49.326;12.690;2023-06-24T05:47:29;12.87;;;11.73;;
16139;SDS011;8175;49.326;12.690;2023-06-24T05:49:55;12.30;;;11.20;;
16139;SDS011;8175;49.326;12.690;2023-06-24T05:52:20;11.40;;;10.40;;
16139;SDS011;8175;49.326;12.690;2023-06-24T05:54:46;10.63;;;9.23;;
16139;SDS011;8175;49.326;12.690;2023-06-24T05:57:12;10.80;;;9.70;;
16139;SDS011;8175;49.326;12.690;2023-06-24T05:59:37;9.93;;;8.93;;
16139;SDS011;8175;49.326;12.690;2023-06-24T06:02:03;10.30;;;9.40;;
16139;SDS011;8175;49.326;12.690;2023-06-24T06:04:29;10.33;;;9.33;;
16139;SDS011;8175;49.326;12.690;2023-06-24T06:06:54;9.97;;;8.97;;
16139;SDS011;8175;49.326;12.690;2023-06-24T06:09:21;9.73;;;8.93;;
16139;SDS011;8175;49.326;12.690;2023-06-24T06:11:47;9.47;;;8.50;;
16139;SDS011;8175;49.326;12.690;2023-06-24T06:14:13;8.87;;;8.07;;
16139;SDS011;8175;49.326;12.690;2023-06-24T06:16:39;9.67;;;8.60;;
16139;SDS011;8175;49.326;12.690;2023-06-24T06:19:04;9.37;;;8.47;;
16139;SDS011;8175;49.326;12.690;2023-06-24T06:21:30;8.53;;;7.73;;
16139;SDS011;8175;49.326;12.690;2023-06-24T06:23:56;8.97;;;7.90;;
16139;SDS011;8175;49.326;12.690;2023-06-24T06:26:22;9.73;;;7.97;;
16139;SDS011;8175;49.326;12.690;2023-06-24T06:28:47;8.73;;;8.00;;
16139;SDS011;8175;49.326;12.690;2023-06-24T06:31:14;8.23;;;7.43;;
16139;SDS011;8175;49.326;12.690;2023-06-24T06:33:40;9.40;;;8.37;;
16139;SDS011;8175;49.326;12.690;2023-06-24T06:36:05;8.63;;;7.83;;
16139;SDS011;8175;49.326;12.690;2023-06-24T06:38:34;9.67;;;8.03;;
16139;SDS011;8175;49.326;12.690;2023-06-24T06:41:00;8.90;;;8.03;;
16139;SDS011;8175;49.326;12.690;2023-06-24T06:43:26;9.13;;;8.07;;
16139;SDS011;8175;49.326;12.690;2023-06-24T06:45:51;8.30;;;7.60;;
16139;SDS011;8175;49.326;12.690;2023-06-24T06:48:17;8.27;;;7.40;;
16139;SDS011;8175;49.326;12.690;2023-06-24T06:50:43;8.20;;;7.40;;
16139;SDS011;8175;49.326;12.690;2023-06-24T06:53:09;9.17;;;7.30;;
16139;SDS011;8175;49.326;12.690;2023-06-24T06:55:35;8.03;;;7.27;;
16139;SDS011;8175;49.326;12.690;2023-06-24T06:58:02;7.70;;;7.00;;
16139;SDS011;8175;49.326;12.690;2023-06-24T07:00:27;8.43;;;7.63;;
16139;SDS011;8175;49.326;12.690;2023-06-24T07:02:53;9.63;;;7.77;;
16139;SDS011;8175;49.326;12.690;2023-06-24T07:05:18;8.00;;;7.30;;
16139;SDS011;8175;49.326;12.690;2023-06-24T07:07:44;8.80;;;7.90;;
16139;SDS011;8175;49.326;12.690;2023-06-24T07:10:10;8.63;;;7.83;;
16139;SDS011;8175;49.326;12.690;2023-06-24T07:12:36;8.93;;;8.10;;
16139;SDS011;8175;49.326;12.690;2023-06-24T07:15:02;8.37;;;7.57;;
16139;SDS011;8175;49.326;12.690;2023-06-24T07:17:28;8.13;;;7.43;;
16139;SDS011;8175;49.326;12.690;2023-06-24T07:19:53;8.00;;;7.30;;
16139;SDS011;8175;49.326;12.690;2023-06-24T07:22:19;9.37;;;7.60;;
16139;SDS011;8175;49.326;12.690;2023-06-24T07:24:45;7.97;;;7.23;;
16139;SDS011;8175;49.326;12.690;2023-06-24T07:27:10;8.30;;;7.60;;
16139;SDS011;8175;49.326;12.690;2023-06-24T07:29:36;7.93;;;7.13;;
16139;SDS011;8175;49.326;12.690;2023-06-24T07:32:02;7.65;;;6.97;;
16139;SDS011;8175;49.326;12.690;2023-06-24T07:34:28;6.80;;;6.20;;
16139;SDS011;8175;49.326;12.690;2023-06-24T07:36:54;7.53;;;6.93;;
16139;SDS011;8175;49.326;12.690;2023-06-24T07:39:20;6.93;;;6.28;;
16139;SDS011;8175;49.326;12.690;2023-06-24T07:41:46;8.82;;;6.60;;
16139;SDS011;8175;49.326;12.690;2023-06-24T07:44:11;5.72;;;5.32;;
16139;SDS011;8175;49.326;12.690;2023-06-24T07:46:37;7.00;;;6.40;;
16139;SDS011;8175;49.326;12.690;2023-06-24T07:49:02;6.80;;;6.20;;
16139;SDS011;8175;49.326;12.690;2023-06-24T07:51:28;6.90;;;6.38;;
16139;SDS011;8175;49.326;12.690;2023-06-24T07:53:54;7.93;;;7.13;;
16139;SDS011;8175;49.326;12.690;2023-06-24T07:56:20;7.10;;;6.55;;
16139;SDS011;8175;49.326;12.690;2023-06-24T07:58:45;7.72;;;7.03;;
16139;SDS011;8175;49.326;12.690;2023-06-24T08:01:11;7.00;;;6.40;;
16139;SDS011;8175;49.326;12.690;2023-06-24T08:03:36;7.38;;;6.65;;
16139;SDS011;8175;49.326;12.690;2023-06-24T08:06:02;7.22;;;6.63;;
16139;SDS011;8175;49.326;12.690;2023-06-24T08:08:28;6.88;;;6.28;;
16139;SDS011;8175;49.326;12.690;2023-06-24T08:10:54;6.70;;;6.10;;
16139;SDS011;8175;49.326;12.690;2023-06-24T08:13:19;7.00;;;6.40;;
16139;SDS011;8175;49.326;12.690;2023-06-24T08:15:45;6.80;;;6.30;;
16139;SDS011;8175;49.326;12.690;2023-06-24T08:18:11;7.13;;;6.47;;
16139;SDS011;8175;49.326;12.690;2023-06-24T08:20:36;7.18;;;6.57;;
16139;SDS011;8175;49.326;12.690;2023-06-24T08:23:02;7.90;;;7.10;;
16139;SDS011;8175;49.326;12.690;2023-06-24T08:25:28;7.72;;;6.30;;
16139;SDS011;8175;49.326;12.690;2023-06-24T08:27:53;6.10;;;5.50;;
16139;SDS011;8175;49.326;12.690;2023-06-24T08:30:19;8.45;;;5.95;;
16139;SDS011;8175;49.326;12.690;2023-06-24T08:32:45;5.68;;;5.05;;
16139;SDS011;8175;49.326;12.690;2023-06-24T08:35:10;6.05;;;5.00;;
16139;SDS011;8175;49.326;12.690;2023-06-24T08:37:36;6.10;;;5.60;;
16139;SDS011;8175;49.326;12.690;2023-06-24T08:40:03;5.60;;;5.10;;
16139;SDS011;8175;49.326;12.690;2023-06-24T08:42:30;5.70;;;5.10;;
16139;SDS011;8175;49.326;12.690;2023-06-24T08:44:55;6.50;;;5.90;;
16139;SDS011;8175;49.326;12.690;2023-06-24T08:47:22;6.07;;;5.53;;
16139;SDS011;8175;49.326;12.690;2023-06-24T08:49:52;6.25;;;5.70;;
16139;SDS011;8175;49.326;12.690;2023-06-24T08:52:21;6.72;;;6.13;;
16139;SDS011;8175;49.326;12.690;2023-06-24T08:54:50;6.78;;;6.13;;
16139;SDS011;8175;49.326;12.690;2023-06-24T08:57:16;7.63;;;6.55;;
16139;SDS011;8175;49.326;12.690;2023-06-24T08:59:43;6.13;;;5.53;;
16139;SDS011;8175;49.326;12.690;2023-06-24T09:02:09;7.10;;;5.53;;
16139;SDS011;8175;49.326;12.690;2023-06-24T09:04:36;5.93;;;5.43;;
16139;SDS011;8175;49.326;12.690;2023-06-24T09:07:01;5.88;;;5.35;;
16139;SDS011;8175;49.326;12.690;2023-06-24T09:09:28;6.18;;;5.55;;
16139;SDS011;8175;49.326;12.690;2023-06-24T09:14:26;5.03;;;4.63;;
16139;SDS011;8175;49.326;12.690;2023-06-24T09:16:54;4.53;;;4.13;;
16139;SDS011;8175;49.326;12.690;2023-06-24T09:19:25;5.20;;;4.80;;
16139;SDS011;8175;49.326;12.690;2023-06-24T09:22:07;5.35;;;4.85;;
16139;SDS011;8175;49.326;12.690;2023-06-24T09:24:34;4.70;;;4.30;;
16139;SDS011;8175;49.326;12.690;2023-06-24T09:27:01;5.20;;;4.18;;
16139;SDS011;8175;49.326;12.690;2023-06-24T09:29:29;4.15;;;3.72;;
16139;SDS011;8175;49.326;12.690;2023-06-24T09:31:57;3.58;;;3.05;;
16139;SDS011;8175;49.326;12.690;2023-06-24T09:34:25;4.95;;;3.78;;
16139;SDS011;8175;49.326;12.690;2023-06-24T09:36:58;5.40;;;3.63;;
16139;SDS011;8175;49.326;12.690;2023-06-24T09:39:24;3.63;;;3.33;;
16139;SDS011;8175;49.326;12.690;2023-06-24T09:41:55;3.92;;;3.63;;
16139;SDS011;8175;49.326;12.690;2023-06-24T09:44:28;3.50;;;3.20;;
16139;SDS011;8175;49.326;12.690;2023-06-24T09:46:54;4.45;;;3.67;;
16139;SDS011;8175;49.326;12.690;2023-06-24T09:49:23;3.50;;;3.20;;
16139;SDS011;8175;49.326;12.690;2023-06-24T09:51:49;3.55;;;3.25;;
16139;SDS011;8175;49.326;12.690;2023-06-24T09:54:19;4.00;;;3.30;;
16139;SDS011;8175;49.326;12.690;2023-06-24T09:56:48;4.75;;;3.47;;
16139;SDS011;8175;49.326;12.690;2023-06-24T09:59:15;3.78;;;3.47;;
16139;SDS011;8175;49.326;12.690;2023-06-24T10:01:44;4.07;;;3.42;;
16139;SDS011;8175;49.326;12.690;2023-06-24T10:04:15;3.70;;;3.40;;
16139;SDS011;8175;49.326;12.690;2023-06-24T10:06:42;3.67;;;3.33;;
16139;SDS011;8175;49.326;12.690;2023-06-24T10:09:08;4.28;;;3.92;;
16139;SDS011;8175;49.326;12.690;2023-06-24T10:11:34;4.05;;;3.75;;
16139;SDS011;8175;49.326;12.690;2023-06-24T10:14:00;3.75;;;3.22;;
16139;SDS011;8175;49.326;12.690;2023-06-24T10:16:26;4.78;;;3.40;;
16139;SDS011;8175;49.326;12.690;2023-06-24T10:18:52;3.80;;;3.25;;
16139;SDS011;8175;49.326;12.690;2023-06-24T10:21:43;3.30;;;3.10;;
16139;SDS011;8175;49.326;12.690;2023-06-24T10:24:11;4.47;;;3.20;;
16139;SDS011;8175;49.326;12.690;2023-06-24T10:26:39;2.85;;;2.65;;
16139;SDS011;8175;49.326;12.690;2023-06-24T10:34:53;3.10;;;2.78;;
16139;SDS011;8175;49.326;12.690;2023-06-24T10:37:03;3.30;;;3.00;;
16139;SDS011;8175;49.326;12.690;2023-06-24T10:39:45;3.40;;;3.10;;
16139;SDS011;8175;49.326;12.690;2023-06-24T10:44:58;3.47;;;3.17;;
16139;SDS011;8175;49.326;12.690;2023-06-24T10:47:33;4.97;;;3.30;;
16139;SDS011;8175;49.326;12.690;2023-06-24T10:49:59;3.47;;;3.17;;
16139;SDS011;8175;49.326;12.690;2023-06-24T10:52:24;3.03;;;2.78;;
16139;SDS011;8175;49.326;12.690;2023-06-24T10:54:51;3.55;;;3.25;;
16139;SDS011;8175;49.326;12.690;2023-06-24T10:57:24;3.40;;;3.13;;
16139;SDS011;8175;49.326;12.690;2023-06-24T10:59:52;3.53;;;3.22;;
16139;SDS011;8175;49.326;12.690;2023-06-24T11:02:20;3.88;;;3.30;;
16139;SDS011;8175;49.326;12.690;2023-06-24T11:04:50;4.13;;;3.30;;
16139;SDS011;8175;49.326;12.690;2023-06-24T11:07:27;5.35;;;3.00;;
16139;SDS011;8175;49.326;12.690;2023-06-24T11:09:56;3.17;;;2.83;;
16139;SDS011;8175;49.326;12.690;2023-06-24T11:12:24;5.07;;;3.00;;
16139;SDS011;8175;49.326;12.690;2023-06-24T11:14:55;4.75;;;2.60;;
16139;SDS011;8175;49.326;12.690;2023-06-24T11:17:24;3.75;;;3.15;;
16139;SDS011;8175;49.326;12.690;2023-06-24T11:19:52;3.35;;;2.70;;
16139;SDS011;8175;49.326;12.690;2023-06-24T11:22:18;2.97;;;2.33;;
16139;SDS011;8175;49.326;12.690;2023-06-24T11:24:43;4.45;;;2.60;;
16139;SDS011;8175;49.326;12.690;2023-06-24T11:27:09;3.30;;;3.00;;
16139;SDS011;8175;49.326;12.690;2023-06-24T11:29:34;2.55;;;2.35;;
16139;SDS011;8175;49.326;12.690;2023-06-24T11:32:03;3.33;;;2.80;;
16139;SDS011;8175;49.326;12.690;2023-06-24T11:34:33;2.80;;;2.60;;
16139;SDS011;8175;49.326;12.690;2023-06-24T11:37:08;3.13;;;2.83;;
16139;SDS011;8175;49.326;12.690;2023-06-24T11:39:37;3.15;;;2.95;;
16139;SDS011;8175;49.326;12.690;2023-06-24T11:42:05;2.58;;;2.38;;
16139;SDS011;8175;49.326;12.690;2023-06-24T11:44:31;3.83;;;2.78;;
16139;SDS011;8175;49.326;12.690;2023-06-24T11:47:06;3.33;;;3.08;;
16139;SDS011;8175;49.326;12.690;2023-06-24T11:49:52;3.08;;;2.88;;
16139;SDS011;8175;49.326;12.690;2023-06-24T11:52:27;3.08;;;2.88;;
16139;SDS011;8175;49.326;12.690;2023-06-24T11:55:22;2.65;;;2.45;;
16139;SDS011;8175;49.326;12.690;2023-06-24T12:00:30;3.15;;;2.70;;
16139;SDS011;8175;49.326;12.690;2023-06-24T12:03:01;3.72;;;3.42;;
16139;SDS011;8175;49.326;12.690;2023-06-24T12:05:32;2.60;;;2.40;;
16139;SDS011;8175;49.326;12.690;2023-06-24T12:10:26;3.00;;;2.80;;
16139;SDS011;8175;49.326;12.690;2023-06-24T12:12:53;3.20;;;2.90;;
16139;SDS011;8175;49.326;12.690;2023-06-24T12:15:21;3.28;;;3.00;;
16139;SDS011;8175;49.326;12.690;2023-06-24T12:17:47;2.95;;;2.55;;
16139;SDS011;8175;49.326;12.690;2023-06-24T12:20:13;2.95;;;2.75;;
16139;SDS011;8175;49.326;12.690;2023-06-24T12:22:40;2.70;;;2.47;;
16139;SDS011;8175;49.326;12.690;2023-06-24T12:25:06;2.72;;;2.53;;
16139;SDS011;8175;49.326;12.690;2023-06-24T12:27:32;3.00;;;2.80;;
16139;SDS011;8175;49.326;12.690;2023-06-24T12:29:58;3.83;;;2.70;;
16139;SDS011;8175;49.326;12.690;2023-06-24T12:32:24;3.00;;;2.80;;
16139;SDS011;8175;49.326;12.690;2023-06-24T12:34:51;2.95;;;2.75;;
16139;SDS011;8175;49.326;12.690;2023-06-24T12:37:16;3.95;;;3.10;;
16139;SDS011;8175;49.326;12.690;2023-06-24T12:39:42;3.03;;;2.75;;
16139;SDS011;8175;49.326;12.690;2023-06-24T12:42:08;3.85;;;2.65;;
16139;SDS011;8175;49.326;12.690;2023-06-24T12:44:34;3.35;;;3.05;;
16139;SDS011;8175;49.326;12.690;2023-06-24T12:46:59;2.90;;;2.70;;
16139;SDS011;8175;49.326;12.690;2023-06-24T12:49:25;4.60;;;3.28;;
16139;SDS011;8175;49.326;12.690;2023-06-24T12:51:51;3.00;;;2.80;;
16139;SDS011;8175;49.326;12.690;2023-06-24T12:54:17;19.00;;;8.35;;
16139;SDS011;8175;49.326;12.690;2023-06-24T12:56:43;5.38;;;3.95;;
16139;SDS011;8175;49.326;12.690;2023-06-24T12:59:08;3.80;;;3.30;;
16139;SDS011;8175;49.326;12.690;2023-06-24T13:01:34;17.23;;;9.63;;
16139;SDS011;8175;49.326;12.690;2023-06-24T13:03:59;3.03;;;2.83;;
16139;SDS011;8175;49.326;12.690;2023-06-24T13:06:25;4.43;;;2.83;;
16139;SDS011;8175;49.326;12.690;2023-06-24T13:08:51;2.63;;;2.42;;
16139;SDS011;8175;49.326;12.690;2023-06-24T13:11:16;2.67;;;2.47;;
16139;SDS011;8175;49.326;12.690;2023-06-24T13:13:42;2.80;;;2.60;;
16139;SDS011;8175;49.326;12.690;2023-06-24T13:16:08;3.08;;;2.60;;
16139;SDS011;8175;49.326;12.690;2023-06-24T13:18:33;2.83;;;2.60;;
16139;SDS011;8175;49.326;12.690;2023-06-24T13:20:59;2.60;;;2.40;;
16139;SDS011;8175;49.326;12.690;2023-06-24T13:23:25;2.72;;;2.53;;
16139;SDS011;8175;49.326;12.690;2023-06-24T13:25:50;3.15;;;2.58;;
16139;SDS011;8175;49.326;12.690;2023-06-24T13:28:16;3.75;;;2.92;;
16139;SDS011;8175;49.326;12.690;2023-06-24T13:30:41;3.67;;;3.05;;
16139;SDS011;8175;49.326;12.690;2023-06-24T13:33:07;3.13;;;2.92;;
16139;SDS011;8175;49.326;12.690;2023-06-24T13:35:33;2.88;;;2.67;;
16139;SDS011;8175;49.326;12.690;2023-06-24T13:37:59;3.20;;;2.80;;
16139;SDS011;8175;49.326;12.690;2023-06-24T13:40:24;3.00;;;2.60;;
16139;SDS011;8175;49.326;12.690;2023-06-24T13:42:50;2.85;;;2.60;;
16139;SDS011;8175;49.326;12.690;2023-06-24T13:45:16;3.10;;;2.80;;
16139;SDS011;8175;49.326;12.690;2023-06-24T13:47:41;2.92;;;2.72;;
16139;SDS011;8175;49.326;12.690;2023-06-24T13:50:07;3.13;;;2.92;;
16139;SDS011;8175;49.326;12.690;2023-06-24T13:52:33;2.72;;;2.53;;
16139;SDS011;8175;49.326;12.690;2023-06-24T13:54:59;2.67;;;2.47;;
16139;SDS011;8175;49.326;12.690;2023-06-24T13:57:25;4.05;;;2.70;;
16139;SDS011;8175;49.326;12.690;2023-06-24T13:59:50;3.30;;;3.03;;
16139;SDS011;8175;49.326;12.690;2023-06-24T14:02:16;3.05;;;2.85;;
16139;SDS011;8175;49.326;12.690;2023-06-24T14:04:42;2.80;;;2.60;;
16139;SDS011;8175;49.326;12.690;2023-06-24T14:07:08;3.08;;;2.78;;
16139;SDS011;8175;49.326;12.690;2023-06-24T14:09:34;3.65;;;2.60;;
16139;SDS011;8175;49.326;12.690;2023-06-24T14:11:59;3.42;;;2.50;;
16139;SDS011;8175;49.326;12.690;2023-06-24T14:14:25;2.72;;;2.53;;
16139;SDS011;8175;49.326;12.690;2023-06-24T14:16:51;2.65;;;2.45;;
16139;SDS011;8175;49.326;12.690;2023-06-24T14:19:17;2.95;;;2.38;;
16139;SDS011;8175;49.326;12.690;2023-06-24T14:21:42;3.88;;;2.60;;
16139;SDS011;8175;49.326;12.690;2023-06-24T14:24:08;3.67;;;3.00;;
16139;SDS011;8175;49.326;12.690;2023-06-24T14:26:36;2.50;;;2.40;;
16139;SDS011;8175;49.326;12.690;2023-06-24T14:29:02;3.55;;;2.70;;
16139;SDS011;8175;49.326;12.690;2023-06-24T14:31:28;2.72;;;2.53;;
16139;SDS011;8175;49.326;12.690;2023-06-24T14:33:54;3.00;;;2.80;;
16139;SDS011;8175;49.326;12.690;2023-06-24T14:36:19;3.03;;;2.72;;
16139;SDS011;8175;49.326;12.690;2023-06-24T14:38:45;3.13;;;2.90;;
16139;SDS011;8175;49.326;12.690;2023-06-24T14:41:10;2.97;;;2.78;;
16139;SDS011;8175;49.326;12.690;2023-06-24T14:43:36;3.58;;;3.28;;
16139;SDS011;8175;49.326;12.690;2023-06-24T14:46:02;3.53;;;3.22;;
16139;SDS011;8175;49.326;12.690;2023-06-24T14:48:27;3.05;;;2.85;;
16139;SDS011;8175;49.326;12.690;2023-06-24T14:50:53;2.97;;;2.75;;
16139;SDS011;8175;49.326;12.690;2023-06-24T14:53:19;3.08;;;2.70;;
16139;SDS011;8175;49.326;12.690;2023-06-24T14:55:45;3.17;;;2.97;;
16139;SDS011;8175;49.326;12.690;2023-06-24T14:58:11;3.60;;;3.30;;
16139;SDS011;8175;49.326;12.690;2023-06-24T15:00:37;3.58;;;3.28;;
16139;SDS011;8175;49.326;12.690;2023-06-24T15:03:02;3.17;;;2.88;;
16139;SDS011;8175;49.326;12.690;2023-06-24T15:05:28;3.35;;;3.05;;
16139;SDS011;8175;49.326;12.690;2023-06-24T15:07:54;3.47;;;3.17;;
16139;SDS011;8175;49.326;12.690;2023-06-24T15:10:19;5.57;;;3.50;;
16139;SDS011;8175;49.326;12.690;2023-06-24T15:12:45;3.97;;;3.67;;
16139;SDS011;8175;49.326;12.690;2023-06-24T15:15:10;3.38;;;3.05;;
16139;SDS011;8175;49.326;12.690;2023-06-24T15:17:36;4.43;;;4.03;;
16139;SDS011;8175;49.326;12.690;2023-06-24T15:20:06;3.72;;;3.42;;
16139;SDS011;8175;49.326;12.690;2023-06-24T15:22:34;4.22;;;3.65;;
16139;SDS011;8175;49.326;12.690;2023-06-24T15:24:59;4.25;;;3.85;;
16139;SDS011;8175;49.326;12.690;2023-06-24T15:27:25;4.00;;;3.60;;
16139;SDS011;8175;49.326;12.690;2023-06-24T15:29:50;4.57;;;4.18;;
16139;SDS011;8175;49.326;12.690;2023-06-24T15:32:16;4.40;;;4.00;;
16139;SDS011;8175;49.326;12.690;2023-06-24T15:34:42;5.15;;;4.65;;
16139;SDS011;8175;49.326;12.690;2023-06-24T15:37:07;4.70;;;4.30;;
16139;SDS011;8175;49.326;12.690;2023-06-24T15:39:33;5.40;;;4.90;;
16139;SDS011;8175;49.326;12.690;2023-06-24T15:41:59;5.10;;;4.60;;
16139;SDS011;8175;49.326;12.690;2023-06-24T15:44:24;5.70;;;5.20;;
16139;SDS011;8175;49.326;12.690;2023-06-24T15:46:50;5.22;;;4.75;;
16139;SDS011;8175;49.326;12.690;2023-06-24T15:49:15;5.40;;;4.90;;
16139;SDS011;8175;49.326;12.690;2023-06-24T15:51:41;5.10;;;4.50;;
16139;SDS011;8175;49.326;12.690;2023-06-24T15:54:07;5.65;;;5.05;;
16139;SDS011;8175;49.326;12.690;2023-06-24T15:56:32;5.97;;;5.45;;
16139;SDS011;8175;49.326;12.690;2023-06-24T15:58:58;5.97;;;4.95;;
16139;SDS011;8175;49.326;12.690;2023-06-24T16:01:24;5.80;;;5.03;;
16139;SDS011;8175;49.326;12.690;2023-06-24T16:03:49;5.30;;;4.88;;
16139;SDS011;8175;49.326;12.690;2023-06-24T16:06:15;5.20;;;4.70;;
16139;SDS011;8175;49.326;12.690;2023-06-24T16:08:41;5.35;;;4.85;;
16139;SDS011;8175;49.326;12.690;2023-06-24T16:11:06;5.88;;;5.28;;
16139;SDS011;8175;49.326;12.690;2023-06-24T16:13:32;5.97;;;5.45;;
16139;SDS011;8175;49.326;12.690;2023-06-24T16:15:58;6.32;;;5.65;;
16139;SDS011;8175;49.326;12.690;2023-06-24T16:18:24;6.15;;;5.65;;
16139;SDS011;8175;49.326;12.690;2023-06-24T16:20:50;6.00;;;5.43;;
16139;SDS011;8175;49.326;12.690;2023-06-24T16:23:15;7.03;;;5.15;;
16139;SDS011;8175;49.326;12.690;2023-06-24T16:25:41;5.63;;;5.00;;
16139;SDS011;8175;49.326;12.690;2023-06-24T16:28:06;5.78;;;5.28;;
16139;SDS011;8175;49.326;12.690;2023-06-24T16:30:32;5.75;;;5.25;;
16139;SDS011;8175;49.326;12.690;2023-06-24T16:32:57;5.95;;;5.38;;
16139;SDS011;8175;49.326;12.690;2023-06-24T16:35:23;5.28;;;4.78;;
16139;SDS011;8175;49.326;12.690;2023-06-24T16:37:49;5.93;;;5.35;;
16139;SDS011;8175;49.326;12.690;2023-06-24T16:40:14;6.03;;;5.43;;
16139;SDS011;8175;49.326;12.690;2023-06-24T16:42:40;7.00;;;5.75;;
16139;SDS011;8175;49.326;12.690;2023-06-24T16:45:06;6.65;;;6.00;;
16139;SDS011;8175;49.326;12.690;2023-06-24T16:47:32;6.10;;;5.30;;
16139;SDS011;8175;49.326;12.690;2023-06-24T16:49:57;6.03;;;5.43;;
16139;SDS011;8175;49.326;12.690;2023-06-24T16:52:24;6.60;;;6.00;;
16139;SDS011;8175;49.326;12.690;2023-06-24T16:54:50;6.30;;;5.70;;
16139;SDS011;8175;49.326;12.690;2023-06-24T16:57:15;5.90;;;5.38;;
16139;SDS011;8175;49.326;12.690;2023-06-24T16:59:41;7.57;;;6.38;;
16139;SDS011;8175;49.326;12.690;2023-06-24T17:02:07;6.90;;;6.13;;
16139;SDS011;8175;49.326;12.690;2023-06-24T17:04:32;8.57;;;6.40;;
16139;SDS011;8175;49.326;12.690;2023-06-24T17:06:58;8.77;;;6.40;;
16139;SDS011;8175;49.326;12.690;2023-06-24T17:09:24;7.00;;;6.30;;
16139;SDS011;8175;49.326;12.690;2023-06-24T17:11:49;7.15;;;6.05;;
16139;SDS011;8175;49.326;12.690;2023-06-24T17:14:15;6.85;;;6.13;;
16139;SDS011;8175;49.326;12.690;2023-06-24T17:16:40;8.23;;;6.30;;
16139;SDS011;8175;49.326;12.690;2023-06-24T17:19:06;7.22;;;6.53;;
16139;SDS011;8175;49.326;12.690;2023-06-24T17:21:32;8.05;;;7.25;;
16139;SDS011;8175;49.326;12.690;2023-06-24T17:23:58;7.57;;;6.88;;
16139;SDS011;8175;49.326;12.690;2023-06-24T17:26:23;7.47;;;6.55;;
16139;SDS011;8175;49.326;12.690;2023-06-24T17:28:49;8.18;;;7.38;;
16139;SDS011;8175;49.326;12.690;2023-06-24T17:31:15;7.75;;;6.95;;
16139;SDS011;8175;49.326;12.690;2023-06-24T17:33:40;7.47;;;6.68;;
16139;SDS011;8175;49.326;12.690;2023-06-24T17:36:06;9.68;;;7.43;;
16139;SDS011;8175;49.326;12.690;2023-06-24T17:38:31;7.25;;;6.55;;
16139;SDS011;8175;49.326;12.690;2023-06-24T17:40:57;7.85;;;6.13;;
16139;SDS011;8175;49.326;12.690;2023-06-24T17:43:23;6.85;;;6.03;;
16139;SDS011;8175;49.326;12.690;2023-06-24T17:45:49;6.20;;;5.70;;
16139;SDS011;8175;49.326;12.690;2023-06-24T17:48:14;7.15;;;6.10;;
16139;SDS011;8175;49.326;12.690;2023-06-24T17:50:40;7.00;;;6.35;;
16139;SDS011;8175;49.326;12.690;2023-06-24T17:53:05;8.05;;;6.43;;
16139;SDS011;8175;49.326;12.690;2023-06-24T17:55:31;5.82;;;5.22;;
16139;SDS011;8175;49.326;12.690;2023-06-24T17:58:01;7.85;;;5.85;;
16139;SDS011;8175;49.326;12.690;2023-06-24T18:00:28;6.53;;;5.93;;
16139;SDS011;8175;49.326;12.690;2023-06-24T18:02:56;6.93;;;6.18;;
16139;SDS011;8175;49.326;12.690;2023-06-24T18:05:21;6.45;;;5.28;;
16139;SDS011;8175;49.326;12.690;2023-06-24T18:07:47;6.00;;;5.40;;
16139;SDS011;8175;49.326;12.690;2023-06-24T18:10:13;5.78;;;4.85;;
16139;SDS011;8175;49.326;12.690;2023-06-24T18:12:39;6.72;;;6.10;;
16139;SDS011;8175;49.326;12.690;2023-06-24T18:15:06;6.57;;;5.85;;
16139;SDS011;8175;49.326;12.690;2023-06-24T18:17:33;5.45;;;4.95;;
16139;SDS011;8175;49.326;12.690;2023-06-24T18:19:58;6.97;;;5.32;;
16139;SDS011;8175;49.326;12.690;2023-06-24T18:22:24;5.60;;;5.10;;
16139;SDS011;8175;49.326;12.690;2023-06-24T18:24:51;6.47;;;5.38;;
16139;SDS011;8175;49.326;12.690;2023-06-24T18:27:18;5.60;;;4.90;;
16139;SDS011;8175;49.326;12.690;2023-06-24T18:29:44;6.15;;;4.90;;
16139;SDS011;8175;49.326;12.690;2023-06-24T18:32:09;5.37;;;4.50;;
16139;SDS011;8175;49.326;12.690;2023-06-24T18:34:35;5.40;;;4.90;;
16139;SDS011;8175;49.326;12.690;2023-06-24T18:37:01;5.37;;;4.87;;
16139;SDS011;8175;49.326;12.690;2023-06-24T18:39:26;4.90;;;4.17;;
16139;SDS011;8175;49.326;12.690;2023-06-24T18:41:52;5.93;;;5.27;;
16139;SDS011;8175;49.326;12.690;2023-06-24T18:44:18;5.53;;;4.70;;
16139;SDS011;8175;49.326;12.690;2023-06-24T18:46:43;5.77;;;5.17;;
16139;SDS011;8175;49.326;12.690;2023-06-24T18:49:09;5.57;;;5.07;;
16139;SDS011;8175;49.326;12.690;2023-06-24T18:51:35;5.63;;;5.07;;